createdAt,value
2022-10-08T00:01:43.244Z,9.70
2022-10-08T00:04:15.899Z,9.60
2022-10-08T00:06:44.086Z,9.70
2022-10-08T00:09:13.608Z,9.70
2022-10-08T00:11:42.754Z,9.60
2022-10-08T00:14:10.903Z,9.70
2022-10-08T00:16:41.331Z,9.60
2022-10-08T00:19:13.382Z,9.60
2022-10-08T00:21:44.174Z,9.60
2022-10-08T00:24:15.705Z,9.70
2022-10-08T00:26:50.527Z,9.70
2022-10-08T00:29:20.945Z,9.60
2022-10-08T00:31:51.300Z,9.60
2022-10-08T00:34:21.070Z,9.60
2022-10-08T00:36:52.340Z,9.60
2022-10-08T00:39:23.660Z,9.60
2022-10-08T00:41:54.035Z,9.60
2022-10-08T00:44:54.808Z,9.60
2022-10-08T00:47:35.197Z,9.60
2022-10-08T00:50:06.740Z,9.70
2022-10-08T00:52:38.754Z,9.60
2022-10-08T00:55:10.268Z,9.50
2022-10-08T00:57:40.048Z,9.60
2022-10-08T01:00:10.910Z,9.70
2022-10-08T01:02:39.214Z,10.00
2022-10-08T01:05:12.601Z,10.10
2022-10-08T01:07:49.495Z,10.10
2022-10-08T01:10:27.919Z,10.20
2022-10-08T01:13:11.314Z,10.20
2022-10-08T01:15:44.135Z,10.20
2022-10-08T01:18:20.880Z,10.30
2022-10-08T01:20:58.085Z,10.30
2022-10-08T01:24:01.808Z,10.30
2022-10-08T01:26:56.866Z,10.40
2022-10-08T01:29:33.778Z,10.50
2022-10-08T01:32:05.477Z,10.60
2022-10-08T01:34:40.549Z,10.60
2022-10-08T01:37:14.248Z,10.60
2022-10-08T01:39:44.975Z,10.60
2022-10-08T01:42:13.524Z,10.70
2022-10-08T01:44:47.859Z,10.70
2022-10-08T01:47:19.781Z,10.70
2022-10-08T01:49:52.939Z,10.60
2022-10-08T01:52:26.034Z,10.60
2022-10-08T01:54:58.971Z,10.50
2022-10-08T01:57:29.094Z,10.40
2022-10-08T02:00:03.245Z,10.40
2022-10-08T02:02:40.931Z,10.30
2022-10-08T02:05:09.831Z,10.30
2022-10-08T02:07:42.917Z,10.50
2022-10-08T02:10:15.186Z,10.60
2022-10-08T02:12:44.989Z,10.60
2022-10-08T02:15:18.637Z,10.60
2022-10-08T02:17:56.370Z,10.70
2022-10-08T02:20:32.146Z,10.90
2022-10-08T02:23:05.198Z,11.10
2022-10-08T02:25:38.690Z,11.20
2022-10-08T02:28:10.722Z,11.40
2022-10-08T02:30:46.936Z,11.30
2022-10-08T02:33:17.851Z,11.10
2022-10-08T02:35:49.271Z,11.10
2022-10-08T02:38:22.276Z,11.00
2022-10-08T02:40:53.903Z,11.00
2022-10-08T02:43:26.121Z,11.00
2022-10-08T02:46:00.361Z,11.00
2022-10-08T02:48:32.436Z,11.00
2022-10-08T02:51:05.472Z,10.90
2022-10-08T02:53:34.913Z,10.70
2022-10-08T02:56:09.575Z,10.60
2022-10-08T02:58:38.314Z,10.50
2022-10-08T03:01:13.194Z,10.40
2022-10-08T03:03:55.235Z,10.30
2022-10-08T03:06:23.669Z,10.20
2022-10-08T03:08:52.828Z,10.20
2022-10-08T03:11:21.279Z,10.30
2022-10-08T03:13:50.887Z,10.20
2022-10-08T03:16:23.568Z,10.20
2022-10-08T03:18:53.674Z,10.20
2022-10-08T03:21:22.094Z,10.30
2022-10-08T03:23:53.409Z,10.30
2022-10-08T03:26:21.668Z,10.40
2022-10-08T03:28:54.074Z,10.40
2022-10-08T03:31:23.905Z,10.40
2022-10-08T03:33:52.450Z,10.50
2022-10-08T03:36:21.853Z,10.50
2022-10-08T03:38:50.630Z,10.50
2022-10-08T03:41:19.604Z,10.60
2022-10-08T03:43:47.790Z,10.60
2022-10-08T03:46:17.525Z,10.70
2022-10-08T03:48:50.031Z,10.80
2022-10-08T03:51:19.678Z,10.90
2022-10-08T03:53:47.826Z,11.10
2022-10-08T03:56:24.366Z,11.30
2022-10-08T03:58:55.009Z,11.50
2022-10-08T04:01:23.505Z,11.80
2022-10-08T04:03:53.362Z,12.00
2022-10-08T04:06:21.722Z,12.10
2022-10-08T04:08:49.850Z,12.20
2022-10-08T04:11:19.580Z,12.20
2022-10-08T04:13:47.740Z,12.20
2022-10-08T04:16:17.339Z,12.10
2022-10-08T04:18:46.696Z,12.00
2022-10-08T04:21:18.343Z,11.90
2022-10-08T04:23:47.437Z,12.10
2022-10-08T04:26:16.285Z,12.10
2022-10-08T04:28:45.860Z,12.20
2022-10-08T04:31:17.778Z,12.30
2022-10-08T04:33:47.024Z,12.30
2022-10-08T04:36:18.789Z,12.40
2022-10-08T04:38:47.713Z,12.50
2022-10-08T04:41:17.736Z,12.60
2022-10-08T04:43:46.773Z,12.60
2022-10-08T04:46:17.236Z,12.50
2022-10-08T04:48:48.089Z,12.60
2022-10-08T04:51:18.466Z,12.70
2022-10-08T04:53:47.143Z,12.70
2022-10-08T04:56:17.198Z,12.70
2022-10-08T04:58:45.860Z,12.70
2022-10-08T05:01:15.682Z,12.80
2022-10-08T05:03:46.530Z,12.80
2022-10-08T05:06:16.643Z,12.80
2022-10-08T05:08:46.830Z,12.90
2022-10-08T05:11:15.418Z,12.90
2022-10-08T05:13:44.035Z,13.00
2022-10-08T05:16:13.919Z,13.00
2022-10-08T05:18:43.255Z,13.00
2022-10-08T05:21:13.803Z,13.10
2022-10-08T05:23:44.002Z,13.20
2022-10-08T05:26:18.920Z,13.20
2022-10-08T05:28:48.629Z,13.20
2022-10-08T05:31:17.382Z,13.20
2022-10-08T05:33:46.207Z,13.20
2022-10-08T05:36:18.840Z,12.90
2022-10-08T05:38:47.623Z,12.80
2022-10-08T05:41:20.402Z,12.70
2022-10-08T05:43:49.517Z,12.70
2022-10-08T05:46:18.532Z,12.60
2022-10-08T05:48:47.101Z,12.70
2022-10-08T05:51:16.874Z,12.70
2022-10-08T05:53:48.251Z,12.60
2022-10-08T05:56:19.708Z,12.60
2022-10-08T05:58:49.045Z,12.70
2022-10-08T06:01:20.211Z,12.80
2022-10-08T06:03:51.235Z,12.90
2022-10-08T06:06:19.909Z,13.10
2022-10-08T06:08:54.765Z,13.40
2022-10-08T06:11:24.351Z,13.60
2022-10-08T06:13:54.500Z,13.90
2022-10-08T06:16:23.221Z,14.00
2022-10-08T06:18:54.365Z,14.20
2022-10-08T06:21:25.221Z,14.40
2022-10-08T06:23:55.285Z,14.50
2022-10-08T06:26:31.643Z,14.50
2022-10-08T06:29:02.730Z,14.80
2022-10-08T06:31:30.940Z,14.60
2022-10-08T06:34:00.316Z,14.60
2022-10-08T06:36:29.614Z,14.80
2022-10-08T06:38:59.821Z,14.80
2022-10-08T06:41:33.353Z,15.10
2022-10-08T06:44:02.281Z,15.10
2022-10-08T06:46:32.365Z,15.30
2022-10-08T06:49:01.664Z,15.40
2022-10-08T06:51:30.726Z,15.60
2022-10-08T06:54:56.538Z,15.70
2022-10-08T06:57:26.194Z,15.80
2022-10-08T06:59:54.655Z,15.70
2022-10-08T07:02:30.236Z,15.90
2022-10-08T07:04:58.515Z,15.70
2022-10-08T07:07:26.683Z,16.00
2022-10-08T07:09:54.961Z,16.10
2022-10-08T07:12:23.153Z,16.20
2022-10-08T07:14:52.709Z,16.20
2022-10-08T07:17:20.871Z,16.60
2022-10-08T07:19:49.184Z,16.60
2022-10-08T07:22:17.353Z,16.70
2022-10-08T07:24:45.515Z,16.60
2022-10-08T07:27:13.857Z,16.40
2022-10-08T07:29:48.187Z,16.70
2022-10-08T07:32:17.779Z,16.80
2022-10-08T07:34:45.943Z,16.90
2022-10-08T07:37:14.160Z,16.80
2022-10-08T07:39:42.378Z,17.00
2022-10-08T07:42:10.579Z,17.10
2022-10-08T07:44:38.701Z,17.00
2022-10-08T07:47:08.285Z,17.00
2022-10-08T07:49:40.820Z,17.40
2022-10-08T07:52:09.191Z,17.50
2022-10-08T07:54:37.341Z,17.60
2022-10-08T07:57:05.857Z,17.70
2022-10-08T07:59:34.310Z,17.80
2022-10-08T08:02:02.682Z,17.80
2022-10-08T08:04:30.871Z,18.00
2022-10-08T08:07:00.525Z,18.10
2022-10-08T08:09:30.081Z,18.30
2022-10-08T08:11:58.364Z,18.30
2022-10-08T08:14:26.602Z,18.40
2022-10-08T08:16:54.922Z,18.50
2022-10-08T08:19:24.242Z,18.60
2022-10-08T08:21:52.525Z,18.80
2022-10-08T08:24:22.418Z,19.00
2022-10-08T08:26:51.513Z,18.90
2022-10-08T08:29:20.696Z,18.90
2022-10-08T08:31:50.574Z,18.90
2022-10-08T08:34:20.925Z,19.00
2022-10-08T08:36:51.043Z,18.70
2022-10-08T08:39:22.913Z,18.90
2022-10-08T08:42:09.942Z,19.00
2022-10-08T08:44:40.745Z,19.10
2022-10-08T08:47:16.053Z,19.30
2022-10-08T08:49:47.349Z,18.80
2022-10-08T08:52:18.725Z,18.60
2022-10-08T08:54:50.054Z,18.80
2022-10-08T08:57:33.022Z,18.70
2022-10-08T09:00:05.488Z,18.60
2022-10-08T09:02:38.656Z,18.50
2022-10-08T09:05:11.644Z,18.00
2022-10-08T09:07:44.054Z,18.30
2022-10-08T09:10:19.029Z,18.50
2022-10-08T09:12:48.045Z,18.50
2022-10-08T09:15:20.159Z,18.40
2022-10-08T09:17:52.957Z,18.50
2022-10-08T09:20:24.669Z,18.60
2022-10-08T09:22:54.979Z,18.50
2022-10-08T09:25:32.908Z,18.50
2022-10-08T09:28:04.371Z,18.40
2022-10-08T09:30:38.802Z,18.30
2022-10-08T09:33:22.219Z,18.40
2022-10-08T09:35:52.466Z,18.50
2022-10-08T09:38:25.398Z,18.70
2022-10-08T09:41:06.526Z,18.80
2022-10-08T09:43:35.815Z,19.00
2022-10-08T09:46:11.999Z,19.20
2022-10-08T09:48:41.774Z,19.20
2022-10-08T09:51:16.702Z,19.40
2022-10-08T09:53:48.394Z,19.40
2022-10-08T09:56:27.574Z,19.50
2022-10-08T09:58:59.288Z,19.90
2022-10-08T10:01:28.207Z,20.20
2022-10-08T10:03:58.226Z,20.30
2022-10-08T10:06:29.072Z,20.60
2022-10-08T10:09:03.064Z,20.80
2022-10-08T10:11:39.148Z,21.10
2022-10-08T10:14:15.817Z,21.10
2022-10-08T10:16:47.648Z,21.00
2022-10-08T10:19:19.535Z,20.90
2022-10-08T10:21:54.178Z,21.10
2022-10-08T10:24:33.456Z,21.40
2022-10-08T10:27:09.843Z,21.20
2022-10-08T10:29:48.620Z,21.70
2022-10-08T10:32:23.390Z,21.90
2022-10-08T10:35:00.296Z,21.70
2022-10-08T10:37:37.301Z,21.70
2022-10-08T10:40:36.396Z,21.60
2022-10-08T10:43:37.132Z,21.70
2022-10-08T10:46:26.317Z,21.70
2022-10-08T10:48:55.573Z,21.60
2022-10-08T10:51:52.974Z,22.00
2022-10-08T10:54:42.834Z,22.10
2022-10-08T10:57:18.693Z,21.70
2022-10-08T11:00:00.738Z,21.60
2022-10-08T11:02:34.454Z,21.50
2022-10-08T11:05:08.786Z,21.20
2022-10-08T11:08:03.581Z,20.90
2022-10-08T11:10:43.255Z,20.80
2022-10-08T11:13:29.929Z,20.70
2022-10-08T11:16:11.200Z,20.70
2022-10-08T11:18:48.610Z,20.30
2022-10-08T11:21:33.332Z,20.00
2022-10-08T11:24:24.686Z,19.80
2022-10-08T11:27:00.987Z,19.70
2022-10-08T11:29:39.444Z,19.90
2022-10-08T11:32:13.636Z,20.10
2022-10-08T11:34:47.614Z,20.30
2022-10-08T11:37:22.709Z,20.50
2022-10-08T11:39:59.349Z,20.50
2022-10-08T11:42:40.197Z,20.60
2022-10-08T11:45:29.817Z,20.50
2022-10-08T11:48:00.238Z,20.50
2022-10-08T11:50:31.661Z,20.50
2022-10-08T11:53:15.193Z,20.70
2022-10-08T11:55:52.228Z,20.70
2022-10-08T11:58:24.563Z,20.90
2022-10-08T12:01:01.747Z,21.10
2022-10-08T12:03:34.657Z,21.20
2022-10-08T12:06:16.542Z,21.20
2022-10-08T12:08:56.285Z,21.10
2022-10-08T12:11:49.150Z,21.40
2022-10-08T12:14:47.546Z,21.50
2022-10-08T12:17:16.727Z,21.40
2022-10-08T12:20:21.226Z,21.60
2022-10-08T12:23:07.323Z,21.60
2022-10-08T12:25:39.116Z,21.60
2022-10-08T12:28:44.560Z,21.40
2022-10-08T12:31:35.770Z,21.60
2022-10-08T12:34:13.916Z,21.60
2022-10-08T12:36:54.134Z,21.60
2022-10-08T12:39:38.011Z,21.10
2022-10-08T12:42:15.486Z,20.60
2022-10-08T12:44:56.048Z,20.40
2022-10-08T12:47:34.312Z,20.50
2022-10-08T12:50:07.332Z,20.40
2022-10-08T12:52:38.113Z,20.40
2022-10-08T12:55:07.345Z,20.60
2022-10-08T12:57:38.978Z,20.70
2022-10-08T13:00:09.801Z,21.00
2022-10-08T13:02:40.419Z,21.00
2022-10-08T13:05:25.647Z,20.70
2022-10-08T13:07:55.479Z,20.90
2022-10-08T13:10:26.026Z,20.80
2022-10-08T13:13:02.064Z,20.80
2022-10-08T13:15:31.097Z,20.70
2022-10-08T13:17:59.318Z,20.30
2022-10-08T13:20:27.970Z,20.80
2022-10-08T13:22:57.460Z,20.70
2022-10-08T13:25:37.302Z,20.70
2022-10-08T13:28:10.990Z,20.50
2022-10-08T13:30:39.429Z,20.40
2022-10-08T13:33:14.060Z,20.30
2022-10-08T13:35:43.879Z,20.60
2022-10-08T13:38:22.323Z,20.70
2022-10-08T13:40:53.202Z,20.60
2022-10-08T13:43:22.189Z,20.60
2022-10-08T13:45:50.351Z,20.30
2022-10-08T13:48:18.912Z,20.30
2022-10-08T13:50:48.786Z,20.50
2022-10-08T13:53:20.685Z,20.60
2022-10-08T13:55:50.877Z,20.50
2022-10-08T13:58:21.883Z,20.60
2022-10-08T14:00:50.501Z,20.40
2022-10-08T14:03:18.934Z,20.40
2022-10-08T14:05:49.415Z,20.30
2022-10-08T14:08:24.542Z,20.30
2022-10-08T14:10:57.682Z,20.20
2022-10-08T14:13:29.782Z,20.00
2022-10-08T14:15:58.099Z,19.90
2022-10-08T14:18:26.686Z,20.00
2022-10-08T14:20:54.934Z,20.20
2022-10-08T14:23:24.510Z,20.50
2022-10-08T14:25:53.753Z,20.70
2022-10-08T14:28:22.070Z,20.60
2022-10-08T14:30:50.698Z,20.60
2022-10-08T14:33:18.929Z,20.40
2022-10-08T14:35:47.236Z,20.30
2022-10-08T14:38:15.399Z,20.00
2022-10-08T14:40:48.216Z,19.80
2022-10-08T14:43:16.493Z,19.70
2022-10-08T14:45:44.695Z,19.70
2022-10-08T14:48:13.062Z,19.60
2022-10-08T14:50:42.824Z,19.60
2022-10-08T14:53:11.386Z,19.60
2022-10-08T14:56:00.496Z,19.70
2022-10-08T14:58:30.075Z,19.50
2022-10-08T15:00:59.353Z,19.30
2022-10-08T15:03:27.517Z,19.20
2022-10-08T15:05:59.011Z,19.10
2022-10-08T15:08:27.335Z,19.00
2022-10-08T15:10:55.460Z,19.00
2022-10-08T15:13:23.838Z,19.00
2022-10-08T15:15:53.493Z,18.90
2022-10-08T15:18:21.683Z,18.70
2022-10-08T15:20:55.665Z,18.60
2022-10-08T15:23:23.997Z,18.40
2022-10-08T15:25:59.381Z,18.30
2022-10-08T15:28:28.901Z,18.20
2022-10-08T15:31:06.588Z,18.20
2022-10-08T15:33:38.962Z,18.10
2022-10-08T15:36:18.784Z,18.10
2022-10-08T15:38:47.915Z,18.00
2022-10-08T15:41:17.442Z,17.90
2022-10-08T15:43:45.824Z,17.90
2022-10-08T15:46:18.337Z,17.80
2022-10-08T15:48:52.699Z,17.90
2022-10-08T15:51:21.255Z,17.90
2022-10-08T15:53:50.094Z,18.10
2022-10-08T15:56:18.745Z,18.00
2022-10-08T15:58:50.696Z,18.00
2022-10-08T16:01:23.209Z,18.00
2022-10-08T16:03:53.198Z,18.00
2022-10-08T16:06:23.485Z,18.00
2022-10-08T16:08:52.431Z,18.00
2022-10-08T16:11:22.539Z,18.00
2022-10-08T16:13:53.424Z,18.00
2022-10-08T16:16:23.857Z,18.00
2022-10-08T16:18:57.514Z,17.90
2022-10-08T16:21:26.305Z,17.90
2022-10-08T16:23:54.395Z,17.90
2022-10-08T16:26:22.993Z,17.90
2022-10-08T16:28:55.091Z,17.90
2022-10-08T16:31:26.303Z,17.90
2022-10-08T16:33:58.759Z,17.90
2022-10-08T16:36:27.765Z,17.90
2022-10-08T16:38:59.491Z,17.80
2022-10-08T16:41:29.814Z,17.90
2022-10-08T16:44:00.020Z,17.40
2022-10-08T16:46:32.319Z,16.10
2022-10-08T16:49:02.158Z,15.90
2022-10-08T16:51:33.145Z,15.80
2022-10-08T16:54:02.317Z,15.60
2022-10-08T16:56:32.728Z,15.70
2022-10-08T16:59:02.932Z,15.70
2022-10-08T17:01:32.932Z,15.70
2022-10-08T17:04:01.349Z,15.70
2022-10-08T17:06:29.874Z,15.70
2022-10-08T17:08:58.620Z,15.60
2022-10-08T17:11:26.884Z,15.60
2022-10-08T17:13:56.946Z,15.70
2022-10-08T17:16:27.003Z,15.70
2022-10-08T17:18:58.183Z,15.70
2022-10-08T17:21:27.594Z,15.70
2022-10-08T17:23:58.561Z,15.70
2022-10-08T17:26:28.701Z,15.60
2022-10-08T17:28:57.272Z,15.50
2022-10-08T17:31:27.122Z,15.50
2022-10-08T17:33:56.815Z,15.60
2022-10-08T17:36:27.443Z,15.50
2022-10-08T17:38:58.200Z,15.50
2022-10-08T17:41:27.701Z,15.40
2022-10-08T17:43:57.048Z,15.50
2022-10-08T17:46:28.528Z,15.50
2022-10-08T17:48:59.084Z,15.40
2022-10-08T17:51:29.073Z,15.40
2022-10-08T17:53:59.261Z,15.40
2022-10-08T17:56:28.158Z,15.30
2022-10-08T17:58:56.518Z,15.30
2022-10-08T18:01:26.583Z,15.30
2022-10-08T18:03:57.752Z,15.30
2022-10-08T18:06:27.567Z,15.20
2022-10-08T18:08:56.594Z,15.30
2022-10-08T18:11:25.514Z,15.20
2022-10-08T18:13:56.801Z,15.10
2022-10-08T18:16:25.654Z,15.10
2022-10-08T18:18:54.046Z,15.00
2022-10-08T18:21:24.022Z,15.10
2022-10-08T18:23:53.525Z,14.90
2022-10-08T18:26:23.426Z,14.90
2022-10-08T18:28:54.603Z,14.80
2022-10-08T18:31:24.613Z,14.70
2022-10-08T18:33:57.742Z,14.70
2022-10-08T18:36:29.455Z,14.60
2022-10-08T18:38:59.669Z,14.50
2022-10-08T18:41:29.539Z,14.30
2022-10-08T18:43:59.245Z,14.30
2022-10-08T18:46:27.714Z,14.30
2022-10-08T18:48:56.312Z,14.30
2022-10-08T18:51:26.233Z,14.30
2022-10-08T18:53:57.385Z,14.20
2022-10-08T18:56:28.870Z,14.20
2022-10-08T18:58:57.842Z,14.10
2022-10-08T19:01:28.089Z,14.10
2022-10-08T19:03:58.520Z,14.00
2022-10-08T19:06:28.710Z,14.00
2022-10-08T19:08:59.466Z,14.00
2022-10-08T19:11:33.700Z,14.00
2022-10-08T19:14:02.396Z,14.00
2022-10-08T19:16:30.733Z,13.90
2022-10-08T19:19:02.465Z,13.90
2022-10-08T19:21:32.144Z,13.90
2022-10-08T19:24:02.362Z,14.00
2022-10-08T19:26:31.501Z,14.10
2022-10-08T19:29:00.436Z,14.20
2022-10-08T19:31:31.197Z,14.20
2022-10-08T19:34:01.295Z,14.20
2022-10-08T19:36:32.904Z,14.20
2022-10-08T19:39:05.227Z,14.30
2022-10-08T19:41:33.969Z,14.20
2022-10-08T19:44:02.292Z,14.10
2022-10-08T19:46:34.181Z,14.10
2022-10-08T19:49:06.393Z,14.10
2022-10-08T19:51:35.138Z,14.00
2022-10-08T19:54:05.398Z,14.10
2022-10-08T19:56:33.977Z,14.10
2022-10-08T19:59:02.218Z,14.10
2022-10-08T20:01:33.568Z,14.00
2022-10-08T20:04:03.961Z,14.00
2022-10-08T20:06:36.781Z,14.00
2022-10-08T20:09:08.380Z,14.00
2022-10-08T20:11:36.652Z,14.00
2022-10-08T20:14:05.638Z,13.90
2022-10-08T20:16:38.295Z,13.90
2022-10-08T20:19:08.711Z,13.80
2022-10-08T20:21:38.446Z,13.80
2022-10-08T20:24:08.349Z,13.80
2022-10-08T20:26:38.606Z,13.90
2022-10-08T20:29:09.449Z,13.80
2022-10-08T20:31:39.677Z,13.80
2022-10-08T20:34:09.540Z,13.70
2022-10-08T20:36:37.933Z,13.70
2022-10-08T20:39:07.929Z,13.70
2022-10-08T20:41:36.194Z,13.70
2022-10-08T20:44:05.697Z,13.70
2022-10-08T20:46:38.093Z,13.70
2022-10-08T20:49:07.575Z,13.70
2022-10-08T20:51:35.904Z,13.70
2022-10-08T20:54:06.197Z,13.70
2022-10-08T20:56:39.838Z,13.70
2022-10-08T20:59:09.029Z,13.70
2022-10-08T21:01:39.120Z,13.70
2022-10-08T21:04:08.772Z,13.60
2022-10-08T21:06:38.994Z,13.60
2022-10-08T21:09:08.022Z,13.60
2022-10-08T21:11:38.301Z,13.50
2022-10-08T21:14:08.151Z,13.50
2022-10-08T21:16:38.807Z,13.40
2022-10-08T21:19:08.881Z,13.40
2022-10-08T21:21:37.056Z,13.40
2022-10-08T21:24:05.586Z,13.40
2022-10-08T21:26:34.939Z,13.40
2022-10-08T21:29:06.613Z,13.40
2022-10-08T21:31:36.967Z,13.40
2022-10-08T21:34:05.886Z,13.40
2022-10-08T21:36:36.586Z,13.30
2022-10-08T21:39:06.676Z,13.30
2022-10-08T21:41:36.507Z,13.40
2022-10-08T21:44:07.656Z,13.30
2022-10-08T21:46:37.812Z,13.20
2022-10-08T21:49:07.738Z,13.20
2022-10-08T21:51:36.701Z,13.20
2022-10-08T21:54:07.132Z,13.20
2022-10-08T21:56:37.447Z,13.20
2022-10-08T21:59:08.338Z,12.90
2022-10-08T22:01:39.197Z,13.00
2022-10-08T22:04:09.623Z,13.00
2022-10-08T22:06:40.153Z,13.00
2022-10-08T22:09:10.706Z,13.00
2022-10-08T22:11:39.050Z,12.90
2022-10-08T22:14:08.897Z,12.80
2022-10-08T22:16:37.519Z,12.80
2022-10-08T22:19:05.868Z,12.80
2022-10-08T22:21:34.989Z,12.80
2022-10-08T22:24:03.610Z,12.70
2022-10-08T22:26:33.587Z,12.70
2022-10-08T22:29:02.376Z,12.60
2022-10-08T22:31:32.262Z,12.50
2022-10-08T22:34:00.604Z,12.50
2022-10-08T22:36:30.565Z,12.40
2022-10-08T22:38:59.580Z,12.40
2022-10-08T22:41:29.360Z,12.20
2022-10-08T22:43:58.227Z,12.30
2022-10-08T22:46:29.293Z,12.10
2022-10-08T22:49:00.786Z,12.20
2022-10-08T22:51:30.184Z,12.10
2022-10-08T22:53:58.382Z,12.10
2022-10-08T22:56:29.477Z,12.00
2022-10-08T22:58:59.353Z,11.90
2022-10-08T23:01:28.554Z,11.80
2022-10-08T23:04:04.025Z,11.80
2022-10-08T23:06:34.028Z,11.80
2022-10-08T23:09:04.582Z,11.70
2022-10-08T23:11:33.800Z,11.70
2022-10-08T23:14:02.790Z,11.70
2022-10-08T23:16:32.629Z,11.70
2022-10-08T23:19:03.556Z,11.60
2022-10-08T23:21:31.799Z,11.60
2022-10-08T23:24:00.094Z,11.50
2022-10-08T23:26:29.076Z,11.40
2022-10-08T23:28:59.894Z,11.40
2022-10-08T23:31:31.073Z,11.50
2022-10-08T23:34:00.049Z,11.50
2022-10-08T23:36:32.557Z,11.50
2022-10-08T23:39:01.422Z,11.60
2022-10-08T23:41:29.714Z,11.60
2022-10-08T23:43:58.686Z,11.50
2022-10-08T23:46:28.414Z,11.40
2022-10-08T23:48:57.021Z,11.30
2022-10-08T23:51:28.096Z,11.60
2022-10-08T23:53:57.786Z,11.70
2022-10-08T23:56:26.123Z,11.80
2022-10-08T23:58:54.733Z,11.80
